sensor_id;sensor_type;location;lat;lon;timestamp;pressure;altitude;pressure_sealevel;temperature;humidity
44839;BME280;30576;42.098;24.876;2023-03-15T00:00:33;98940.13;;;5.19;55.26
44839;BME280;30576;42.098;24.876;2023-03-15T00:02:58;98932.28;;;5.20;55.28
44839;BME280;30576;42.098;24.876;2023-03-15T00:05:24;98935.69;;;5.30;55.17
44839;BME280;30576;42.098;24.876;2023-03-15T00:07:49;98920.84;;;5.32;55.09
44839;BME280;30576;42.098;24.876;2023-03-15T00:10:14;98930.44;;;5.35;55.19
44839;BME280;30576;42.098;24.876;2023-03-15T00:12:40;98930.50;;;5.21;55.40
44839;BME280;30576;42.098;24.876;2023-03-15T00:15:07;98920.06;;;5.16;55.76
44839;BME280;30576;42.098;24.876;2023-03-15T00:17:32;98927.00;;;5.25;56.21
44839;BME280;30576;42.098;24.876;2023-03-15T00:19:58;98932.19;;;5.28;56.17
44839;BME280;30576;42.098;24.876;2023-03-15T00:22:24;98933.03;;;5.38;55.37
44839;BME280;30576;42.098;24.876;2023-03-15T00:24:49;98928.78;;;5.18;55.65
44839;BME280;30576;42.098;24.876;2023-03-15T00:27:14;98922.66;;;5.24;56.18
44839;BME280;30576;42.098;24.876;2023-03-15T00:29:40;98915.72;;;5.14;56.38
44839;BME280;30576;42.098;24.876;2023-03-15T00:32:05;98914.03;;;5.05;56.22
44839;BME280;30576;42.098;24.876;2023-03-15T00:34:31;98912.44;;;4.72;55.61
44839;BME280;30576;42.098;24.876;2023-03-15T00:36:57;98911.66;;;4.46;56.07
44839;BME280;30576;42.098;24.876;2023-03-15T00:39:23;98902.94;;;4.49;56.81
44839;BME280;30576;42.098;24.876;2023-03-15T00:41:50;98902.94;;;4.51;57.67
44839;BME280;30576;42.098;24.876;2023-03-15T00:44:15;98903.84;;;4.43;57.48
44839;BME280;30576;42.098;24.876;2023-03-15T00:46:40;98903.81;;;4.50;57.29
44839;BME280;30576;42.098;24.876;2023-03-15T00:49:06;98904.72;;;4.36;57.39
44839;BME280;30576;42.098;24.876;2023-03-15T00:51:31;98904.69;;;4.48;57.59
44839;BME280;30576;42.098;24.876;2023-03-15T00:53:57;98892.50;;;4.43;57.81
44839;BME280;30576;42.098;24.876;2023-03-15T00:56:24;98889.06;;;4.36;58.38
44839;BME280;30576;42.098;24.876;2023-03-15T00:58:50;98885.63;;;4.17;58.26
44839;BME280;30576;42.098;24.876;2023-03-15T01:01:20;98881.28;;;4.15;57.98
44839;BME280;30576;42.098;24.876;2023-03-15T01:03:46;98888.22;;;4.29;58.02
44839;BME280;30576;42.098;24.876;2023-03-15T01:06:13;98881.19;;;4.50;58.05
44839;BME280;30576;42.098;24.876;2023-03-15T01:08:39;98885.53;;;4.53;58.20
44839;BME280;30576;42.098;24.876;2023-03-15T01:11:06;98884.63;;;4.54;58.11
44839;BME280;30576;42.098;24.876;2023-03-15T01:13:32;98878.59;;;4.36;58.27
44839;BME280;30576;42.098;24.876;2023-03-15T01:15:57;98867.38;;;4.12;58.40
44839;BME280;30576;42.098;24.876;2023-03-15T01:18:22;98872.63;;;3.94;59.28
44839;BME280;30576;42.098;24.876;2023-03-15T01:20:48;98879.56;;;3.73;59.25
44839;BME280;30576;42.098;24.876;2023-03-15T01:23:13;98876.94;;;3.87;59.96
44839;BME280;30576;42.098;24.876;2023-03-15T01:25:38;98886.53;;;3.93;59.66
44839;BME280;30576;42.098;24.876;2023-03-15T01:28:04;98870.81;;;4.22;58.86
44839;BME280;30576;42.098;24.876;2023-03-15T01:30:29;98871.66;;;4.23;59.20
44839;BME280;30576;42.098;24.876;2023-03-15T01:32:54;98883.84;;;4.25;59.20
44839;BME280;30576;42.098;24.876;2023-03-15T01:35:20;98885.63;;;4.12;59.22
44839;BME280;30576;42.098;24.876;2023-03-15T01:37:47;98872.59;;;4.00;58.69
44839;BME280;30576;42.098;24.876;2023-03-15T01:40:13;98875.25;;;3.80;58.35
44839;BME280;30576;42.098;24.876;2023-03-15T01:48:08;98863.06;;;3.59;58.13
44839;BME280;30576;42.098;24.876;2023-03-15T01:50:33;98872.63;;;3.72;58.12
44839;BME280;30576;42.098;24.876;2023-03-15T01:52:58;98866.53;;;3.59;58.35
44839;BME280;30576;42.098;24.876;2023-03-15T01:55:24;98871.72;;;3.24;58.07
44839;BME280;30576;42.098;24.876;2023-03-15T01:57:50;98878.66;;;3.17;58.58
44839;BME280;30576;42.098;24.876;2023-03-15T02:00:20;98867.41;;;3.25;58.22
44839;BME280;30576;42.098;24.876;2023-03-15T02:02:50;98869.13;;;3.35;58.67
44839;BME280;30576;42.098;24.876;2023-03-15T02:05:33;98870.88;;;3.36;58.07
44839;BME280;30576;42.098;24.876;2023-03-15T02:07:59;98877.81;;;3.18;58.73
44839;BME280;30576;42.098;24.876;2023-03-15T02:10:36;98866.50;;;3.24;59.17
44839;BME280;30576;42.098;24.876;2023-03-15T02:13:02;98856.97;;;3.38;58.25
44839;BME280;30576;42.098;24.876;2023-03-15T02:15:27;98858.69;;;3.29;58.58
44839;BME280;30576;42.098;24.876;2023-03-15T02:17:53;98864.81;;;3.34;58.87
44839;BME280;30576;42.098;24.876;2023-03-15T02:22:54;98861.31;;;3.75;58.71
44839;BME280;30576;42.098;24.876;2023-03-15T02:25:25;98863.06;;;3.78;58.41
44839;BME280;30576;42.098;24.876;2023-03-15T02:27:54;98856.09;;;3.78;58.56
44839;BME280;30576;42.098;24.876;2023-03-15T02:30:20;98851.75;;;3.72;58.35
44839;BME280;30576;42.098;24.876;2023-03-15T02:32:46;98850.88;;;3.58;58.46
44839;BME280;30576;42.098;24.876;2023-03-15T02:35:11;98850.03;;;3.62;58.12
44839;BME280;30576;42.098;24.876;2023-03-15T02:37:36;98853.50;;;3.64;58.48
44839;BME280;30576;42.098;24.876;2023-03-15T02:40:05;98851.78;;;3.60;57.97
44839;BME280;30576;42.098;24.876;2023-03-15T02:42:35;98850.88;;;3.43;58.50
44839;BME280;30576;42.098;24.876;2023-03-15T02:45:01;98845.66;;;3.46;58.72
44839;BME280;30576;42.098;24.876;2023-03-15T02:47:28;98850.03;;;3.54;59.01
44839;BME280;30576;42.098;24.876;2023-03-15T02:49:55;98850.88;;;3.64;59.32
44839;BME280;30576;42.098;24.876;2023-03-15T02:52:21;98854.38;;;3.51;59.13
44839;BME280;30576;42.098;24.876;2023-03-15T02:54:46;98854.38;;;3.35;59.51
44839;BME280;30576;42.098;24.876;2023-03-15T02:57:12;98853.47;;;3.38;59.90
44839;BME280;30576;42.098;24.876;2023-03-15T02:59:38;98855.22;;;3.37;59.88
44839;BME280;30576;42.098;24.876;2023-03-15T03:02:04;98850.03;;;3.40;59.93
44839;BME280;30576;42.098;24.876;2023-03-15T03:04:29;98854.38;;;3.45;59.04
44839;BME280;30576;42.098;24.876;2023-03-15T03:06:55;98850.03;;;3.54;59.30
44839;BME280;30576;42.098;24.876;2023-03-15T03:09:20;98852.63;;;3.34;59.42
44839;BME280;30576;42.098;24.876;2023-03-15T03:11:45;98841.34;;;3.29;59.83
44839;BME280;30576;42.098;24.876;2023-03-15T03:14:10;98836.97;;;3.30;60.01
44839;BME280;30576;42.098;24.876;2023-03-15T03:16:39;98829.16;;;3.25;60.45
44839;BME280;30576;42.098;24.876;2023-03-15T03:19:04;98827.41;;;3.19;60.72
44839;BME280;30576;42.098;24.876;2023-03-15T03:21:29;98830.91;;;3.25;60.52
44839;BME280;30576;42.098;24.876;2023-03-15T03:23:55;98832.63;;;3.35;60.44
44839;BME280;30576;42.098;24.876;2023-03-15T03:26:20;98830.91;;;3.25;60.92
44839;BME280;30576;42.098;24.876;2023-03-15T03:28:46;98822.19;;;3.18;60.56
44839;BME280;30576;42.098;24.876;2023-03-15T03:31:19;98829.16;;;3.25;60.82
44839;BME280;30576;42.098;24.876;2023-03-15T03:33:45;98828.31;;;3.29;60.66
44839;BME280;30576;42.098;24.876;2023-03-15T03:36:10;98839.59;;;3.28;61.04
44839;BME280;30576;42.098;24.876;2023-03-15T03:38:40;98826.53;;;3.14;61.18
44839;BME280;30576;42.098;24.876;2023-03-15T03:41:06;98822.19;;;3.16;60.70
44839;BME280;30576;42.098;24.876;2023-03-15T03:43:31;98829.97;;;2.90;60.95
44839;BME280;30576;42.098;24.876;2023-03-15T03:45:57;98819.53;;;2.82;61.65
44839;BME280;30576;42.098;24.876;2023-03-15T03:48:22;98824.72;;;2.81;62.04
44839;BME280;30576;42.098;24.876;2023-03-15T03:50:47;98824.78;;;2.99;61.54
44839;BME280;30576;42.098;24.876;2023-03-15T03:53:13;98817.88;;;3.20;61.92
44839;BME280;30576;42.098;24.876;2023-03-15T03:55:38;98811.75;;;3.02;62.55
44839;BME280;30576;42.098;24.876;2023-03-15T03:58:03;98811.72;;;2.92;62.64
44839;BME280;30576;42.098;24.876;2023-03-15T04:00:29;98809.09;;;2.82;62.10
44839;BME280;30576;42.098;24.876;2023-03-15T04:02:54;98809.03;;;2.51;62.30
44839;BME280;30576;42.098;24.876;2023-03-15T04:05:20;98804.66;;;2.40;62.65
44839;BME280;30576;42.098;24.876;2023-03-15T04:07:45;98809.06;;;2.62;62.94
44839;BME280;30576;42.098;24.876;2023-03-15T04:10:10;98813.34;;;2.40;63.45
44839;BME280;30576;42.098;24.876;2023-03-15T04:12:40;98819.38;;;2.33;64.82
44839;BME280;30576;42.098;24.876;2023-03-15T04:15:05;98816.81;;;2.42;64.59
44839;BME280;30576;42.098;24.876;2023-03-15T04:17:31;98815.16;;;2.63;64.23
44839;BME280;30576;42.098;24.876;2023-03-15T04:19:56;98816.91;;;2.79;64.24
44839;BME280;30576;42.098;24.876;2023-03-15T04:22:23;98815.22;;;2.91;63.79
44839;BME280;30576;42.098;24.876;2023-03-15T04:24:48;98816.09;;;2.97;63.92
44839;BME280;30576;42.098;24.876;2023-03-15T04:27:18;98808.28;;;3.00;63.41
44839;BME280;30576;42.098;24.876;2023-03-15T04:29:43;98809.13;;;2.93;64.08
44839;BME280;30576;42.098;24.876;2023-03-15T04:32:09;98816.94;;;2.82;64.24
44839;BME280;30576;42.098;24.876;2023-03-15T04:34:34;98813.47;;;2.82;64.85
44839;BME280;30576;42.098;24.876;2023-03-15T04:37:03;98803.88;;;2.76;64.69
44839;BME280;30576;42.098;24.876;2023-03-15T04:39:28;98797.75;;;2.54;64.31
44839;BME280;30576;42.098;24.876;2023-03-15T04:41:54;98805.50;;;2.34;64.20
44839;BME280;30576;42.098;24.876;2023-03-15T04:44:19;98815.09;;;2.44;64.25
44839;BME280;30576;42.098;24.876;2023-03-15T04:46:45;98809.91;;;2.50;64.30
44839;BME280;30576;42.098;24.876;2023-03-15T04:49:10;98807.28;;;2.40;64.55
44839;BME280;30576;42.098;24.876;2023-03-15T04:51:35;98806.44;;;2.59;64.43
44839;BME280;30576;42.098;24.876;2023-03-15T04:54:01;98806.44;;;2.56;65.30
44839;BME280;30576;42.098;24.876;2023-03-15T04:56:28;98809.09;;;2.72;64.76
44839;BME280;30576;42.098;24.876;2023-03-15T04:58:53;98804.78;;;2.84;65.36
44839;BME280;30576;42.098;24.876;2023-03-15T05:01:18;98816.94;;;2.93;65.03
44839;BME280;30576;42.098;24.876;2023-03-15T05:03:44;98809.16;;;3.18;65.35
44839;BME280;30576;42.098;24.876;2023-03-15T05:06:10;98807.44;;;3.32;64.71
44839;BME280;30576;42.098;24.876;2023-03-15T05:08:35;98816.13;;;3.27;65.72
44839;BME280;30576;42.098;24.876;2023-03-15T05:11:01;98817.00;;;3.35;65.62
44839;BME280;30576;42.098;24.876;2023-03-15T05:13:27;98822.19;;;3.46;65.88
44839;BME280;30576;42.098;24.876;2023-03-15T05:15:52;98818.72;;;3.59;65.47
44839;BME280;30576;42.098;24.876;2023-03-15T05:18:18;98810.03;;;3.69;65.15
44839;BME280;30576;42.098;24.876;2023-03-15T05:20:43;98810.03;;;3.69;65.00
44839;BME280;30576;42.098;24.876;2023-03-15T05:23:08;98810.00;;;3.79;65.00
44839;BME280;30576;42.098;24.876;2023-03-15T05:25:34;98808.28;;;3.76;64.99
44839;BME280;30576;42.098;24.876;2023-03-15T05:28:00;98804.81;;;3.72;65.42
44839;BME280;30576;42.098;24.876;2023-03-15T05:30:28;98807.41;;;3.80;65.48
44839;BME280;30576;42.098;24.876;2023-03-15T05:32:53;98809.13;;;3.86;65.67
44839;BME280;30576;42.098;24.876;2023-03-15T05:35:19;98811.72;;;3.86;65.44
44839;BME280;30576;42.098;24.876;2023-03-15T05:37:44;98811.75;;;3.78;66.93
44839;BME280;30576;42.098;24.876;2023-03-15T05:40:09;98809.09;;;3.95;66.53
44839;BME280;30576;42.098;24.876;2023-03-15T05:42:35;98805.66;;;3.84;66.68
44839;BME280;30576;42.098;24.876;2023-03-15T05:45:00;98801.31;;;3.75;67.57
44839;BME280;30576;42.098;24.876;2023-03-15T05:47:26;98804.78;;;3.89;67.12
44839;BME280;30576;42.098;24.876;2023-03-15T05:49:53;98802.16;;;3.94;66.96
44839;BME280;30576;42.098;24.876;2023-03-15T05:52:18;98796.91;;;4.06;66.90
44839;BME280;30576;42.098;24.876;2023-03-15T05:54:43;98797.75;;;4.05;66.75
44839;BME280;30576;42.098;24.876;2023-03-15T05:57:09;98811.66;;;4.12;66.53
44839;BME280;30576;42.098;24.876;2023-03-15T05:59:34;98807.31;;;4.19;66.69
44839;BME280;30576;42.098;24.876;2023-03-15T06:02:00;98814.22;;;4.23;66.52
44839;BME280;30576;42.098;24.876;2023-03-15T06:04:25;98808.13;;;4.33;66.60
44839;BME280;30576;42.098;24.876;2023-03-15T06:06:51;98813.34;;;4.30;66.89
44839;BME280;30576;42.098;24.876;2023-03-15T06:09:16;98804.66;;;4.29;66.82
44839;BME280;30576;42.098;24.876;2023-03-15T06:11:41;98805.50;;;4.32;67.56
44839;BME280;30576;42.098;24.876;2023-03-15T06:14:06;98809.88;;;4.29;69.02
44839;BME280;30576;42.098;24.876;2023-03-15T06:16:32;98807.94;;;4.69;68.68
44839;BME280;30576;42.098;24.876;2023-03-15T06:18:57;98818.28;;;4.90;67.58
44839;BME280;30576;42.098;24.876;2023-03-15T06:21:22;98816.63;;;4.75;66.74
44839;BME280;30576;42.098;24.876;2023-03-15T06:23:48;98817.41;;;4.90;66.98
44839;BME280;30576;42.098;24.876;2023-03-15T06:26:13;98818.44;;;4.58;67.56
44839;BME280;30576;42.098;24.876;2023-03-15T06:28:39;98818.44;;;4.59;68.77
44839;BME280;30576;42.098;24.876;2023-03-15T06:31:08;98825.19;;;5.00;67.49
44839;BME280;30576;42.098;24.876;2023-03-15T06:33:33;98818.13;;;5.12;65.76
44839;BME280;30576;42.098;24.876;2023-03-15T06:35:59;98806.94;;;4.93;66.79
44839;BME280;30576;42.098;24.876;2023-03-15T06:38:24;98808.50;;;5.18;67.06
44839;BME280;30576;42.098;24.876;2023-03-15T06:40:49;98809.38;;;5.22;66.25
44839;BME280;30576;42.098;24.876;2023-03-15T06:43:15;98803.28;;;5.17;67.49
44839;BME280;30576;42.098;24.876;2023-03-15T06:45:46;98804.81;;;5.44;66.54
44839;BME280;30576;42.098;24.876;2023-03-15T06:48:12;98800.75;;;6.04;65.02
44839;BME280;30576;42.098;24.876;2023-03-15T06:50:37;98800.44;;;6.32;64.27
44839;BME280;30576;42.098;24.876;2023-03-15T06:53:03;98798.66;;;6.38;63.02
44839;BME280;30576;42.098;24.876;2023-03-15T06:55:28;98793.22;;;6.54;63.25
44839;BME280;30576;42.098;24.876;2023-03-15T06:57:53;98802.81;;;6.52;62.26
44839;BME280;30576;42.098;24.876;2023-03-15T07:00:19;98795.66;;;6.66;61.76
44839;BME280;30576;42.098;24.876;2023-03-15T07:02:44;98790.91;;;6.93;61.13
44839;BME280;30576;42.098;24.876;2023-03-15T07:05:09;98795.34;;;6.89;61.43
44839;BME280;30576;42.098;24.876;2023-03-15T07:07:35;98801.78;;;7.26;60.79
44839;BME280;30576;42.098;24.876;2023-03-15T07:10:00;98792.63;;;7.51;59.57
44839;BME280;30576;42.098;24.876;2023-03-15T07:12:26;98794.16;;;7.65;59.47
44839;BME280;30576;42.098;24.876;2023-03-15T07:14:51;98782.97;;;8.02;58.82
44839;BME280;30576;42.098;24.876;2023-03-15T07:17:16;98779.44;;;8.03;58.56
44839;BME280;30576;42.098;24.876;2023-03-15T07:19:42;98787.41;;;8.45;58.16
44839;BME280;30576;42.098;24.876;2023-03-15T07:22:07;98787.34;;;8.48;57.54
44839;BME280;30576;42.098;24.876;2023-03-15T07:24:32;98790.31;;;8.30;57.23
44839;BME280;30576;42.098;24.876;2023-03-15T07:26:59;98781.53;;;8.29;56.02
44839;BME280;30576;42.098;24.876;2023-03-15T07:29:24;98789.63;;;8.20;56.65
44839;BME280;30576;42.098;24.876;2023-03-15T07:31:50;98785.78;;;8.36;55.82
44839;BME280;30576;42.098;24.876;2023-03-15T07:34:15;98775.38;;;7.86;56.40
44839;BME280;30576;42.098;24.876;2023-03-15T07:36:40;98783.34;;;7.82;57.81
44839;BME280;30576;42.098;24.876;2023-03-15T07:39:06;98782.97;;;8.02;57.10
44839;BME280;30576;42.098;24.876;2023-03-15T07:41:31;98784.88;;;8.39;55.60
44839;BME280;30576;42.098;24.876;2023-03-15T07:43:56;98783.63;;;8.57;55.23
44839;BME280;30576;42.098;24.876;2023-03-15T07:46:22;98775.91;;;8.90;53.25
44839;BME280;30576;42.098;24.876;2023-03-15T07:48:47;98771.78;;;9.16;52.80
44839;BME280;30576;42.098;24.876;2023-03-15T07:51:12;98771.16;;;9.06;52.66
44839;BME280;30576;42.098;24.876;2023-03-15T07:53:38;98764.81;;;9.14;52.24
44839;BME280;30576;42.098;24.876;2023-03-15T07:56:03;98765.72;;;9.13;52.27
44839;BME280;30576;42.098;24.876;2023-03-15T07:58:29;98778.59;;;8.88;52.03
44839;BME280;30576;42.098;24.876;2023-03-15T08:00:54;98766.50;;;9.17;52.74
44839;BME280;30576;42.098;24.876;2023-03-15T08:03:20;98753.78;;;9.36;51.57
44839;BME280;30576;42.098;24.876;2023-03-15T08:05:46;98754.81;;;9.63;50.12
44839;BME280;30576;42.098;24.876;2023-03-15T08:08:11;98756.50;;;9.66;50.38
44839;BME280;30576;42.098;24.876;2023-03-15T08:10:36;98750.72;;;9.53;52.50
44839;BME280;30576;42.098;24.876;2023-03-15T08:13:02;98741.03;;;9.86;51.50
44839;BME280;30576;42.098;24.876;2023-03-15T08:15:27;98742.59;;;10.25;50.03
44839;BME280;30576;42.098;24.876;2023-03-15T08:17:52;98730.50;;;10.18;49.06
44839;BME280;30576;42.098;24.876;2023-03-15T08:20:18;98732.56;;;9.75;50.73
44839;BME280;30576;42.098;24.876;2023-03-15T08:22:44;98717.19;;;9.91;49.84
44839;BME280;30576;42.098;24.876;2023-03-15T08:25:10;98710.34;;;9.53;50.62
44839;BME280;30576;42.098;24.876;2023-03-15T08:27:36;98697.72;;;9.31;51.32
44839;BME280;30576;42.098;24.876;2023-03-15T08:30:02;98689.31;;;9.51;52.08
44839;BME280;30576;42.098;24.876;2023-03-15T08:32:27;98696.34;;;9.50;51.58
44839;BME280;30576;42.098;24.876;2023-03-15T08:34:52;98696.75;;;9.68;51.32
44839;BME280;30576;42.098;24.876;2023-03-15T08:37:18;98682.19;;;9.88;50.50
44839;BME280;30576;42.098;24.876;2023-03-15T08:39:44;98693.63;;;9.86;50.42
44839;BME280;30576;42.098;24.876;2023-03-15T08:42:09;98690.75;;;9.94;50.28
44839;BME280;30576;42.098;24.876;2023-03-15T08:44:34;98680.41;;;9.57;51.12
44839;BME280;30576;42.098;24.876;2023-03-15T08:47:00;98684.31;;;9.75;50.71
44839;BME280;30576;42.098;24.876;2023-03-15T08:49:25;98681.84;;;10.00;50.65
44839;BME280;30576;42.098;24.876;2023-03-15T08:51:50;98688.00;;;9.99;52.11
44839;BME280;30576;42.098;24.876;2023-03-15T08:54:16;98687.66;;;10.11;50.54
44839;BME280;30576;42.098;24.876;2023-03-15T08:56:41;98686.72;;;10.44;50.15
44839;BME280;30576;42.098;24.876;2023-03-15T08:59:07;98693.78;;;10.71;48.97
44839;BME280;30576;42.098;24.876;2023-03-15T09:01:33;98675.59;;;11.17;50.31
44839;BME280;30576;42.098;24.876;2023-03-15T09:03:59;98675.06;;;11.58;48.14
44839;BME280;30576;42.098;24.876;2023-03-15T09:06:25;98667.94;;;11.60;48.00
44839;BME280;30576;42.098;24.876;2023-03-15T09:08:50;98666.94;;;11.64;47.18
44839;BME280;30576;42.098;24.876;2023-03-15T09:11:18;98663.97;;;11.48;46.22
44839;BME280;30576;42.098;24.876;2023-03-15T09:13:43;98657.59;;;11.54;47.24
44839;BME280;30576;42.098;24.876;2023-03-15T09:16:08;98658.91;;;11.42;47.02
44839;BME280;30576;42.098;24.876;2023-03-15T09:18:33;98663.19;;;11.19;46.52
44839;BME280;30576;42.098;24.876;2023-03-15T09:20:59;98663.19;;;11.19;46.76
44839;BME280;30576;42.098;24.876;2023-03-15T09:23:25;98657.66;;;11.27;46.22
44839;BME280;30576;42.098;24.876;2023-03-15T09:25:51;98660.03;;;10.81;47.64
44839;BME280;30576;42.098;24.876;2023-03-15T09:28:16;98650.03;;;10.64;48.54
44839;BME280;30576;42.098;24.876;2023-03-15T09:30:42;98656.53;;;11.07;46.98
44839;BME280;30576;42.098;24.876;2023-03-15T09:33:07;98648.63;;;11.34;46.68
44839;BME280;30576;42.098;24.876;2023-03-15T09:35:32;98640.31;;;11.45;47.27
44839;BME280;30576;42.098;24.876;2023-03-15T09:37:58;98640.00;;;11.78;45.95
44839;BME280;30576;42.098;24.876;2023-03-15T09:40:25;98631.84;;;11.84;45.00
44839;BME280;30576;42.098;24.876;2023-03-15T09:50:24;98637.22;;;12.30;44.60
44839;BME280;30576;42.098;24.876;2023-03-15T09:52:54;98629.53;;;12.24;44.20
44839;BME280;30576;42.098;24.876;2023-03-15T09:55:23;98624.81;;;12.54;44.55
44839;BME280;30576;42.098;24.876;2023-03-15T09:57:52;98619.81;;;12.46;44.65
44839;BME280;30576;42.098;24.876;2023-03-15T10:00:22;98620.28;;;12.12;44.51
44839;BME280;30576;42.098;24.876;2023-03-15T10:02:55;98626.22;;;11.95;44.27
44839;BME280;30576;42.098;24.876;2023-03-15T10:05:22;98609.69;;;11.88;44.41
44839;BME280;30576;42.098;24.876;2023-03-15T10:07:50;98604.88;;;11.76;44.70
44839;BME280;30576;42.098;24.876;2023-03-15T10:10:16;98603.28;;;12.19;43.38
44839;BME280;30576;42.098;24.876;2023-03-15T10:12:44;98589.69;;;12.28;43.71
44839;BME280;30576;42.098;24.876;2023-03-15T10:15:22;98589.50;;;12.33;44.69
44839;BME280;30576;42.098;24.876;2023-03-15T10:22:56;98592.75;;;12.40;43.36
44839;BME280;30576;42.098;24.876;2023-03-15T10:27:51;98594.63;;;13.02;42.71
44839;BME280;30576;42.098;24.876;2023-03-15T10:30:19;98588.38;;;12.83;42.67
44839;BME280;30576;42.098;24.876;2023-03-15T10:32:46;98592.69;;;12.85;43.56
44839;BME280;30576;42.098;24.876;2023-03-15T10:35:14;98585.72;;;12.83;45.15
44839;BME280;30576;42.098;24.876;2023-03-15T10:37:40;98588.78;;;13.15;44.23
44839;BME280;30576;42.098;24.876;2023-03-15T10:40:06;98591.22;;;12.12;44.41
44839;BME280;30576;42.098;24.876;2023-03-15T10:42:39;98587.47;;;12.40;45.84
44839;BME280;30576;42.098;24.876;2023-03-15T10:45:12;98577.19;;;12.76;46.73
44839;BME280;30576;42.098;24.876;2023-03-15T10:47:43;98570.47;;;12.67;44.12
44839;BME280;30576;42.098;24.876;2023-03-15T10:50:10;98567.25;;;12.81;44.09
44839;BME280;30576;42.098;24.876;2023-03-15T10:52:40;98566.22;;;12.63;43.79
44839;BME280;30576;42.098;24.876;2023-03-15T10:55:14;98567.16;;;12.62;45.27
44839;BME280;30576;42.098;24.876;2023-03-15T10:57:50;98574.22;;;12.62;43.64
44839;BME280;30576;42.098;24.876;2023-03-15T11:02:53;98555.81;;;13.22;42.84
44839;BME280;30576;42.098;24.876;2023-03-15T11:05:25;98565.34;;;13.47;43.18
44839;BME280;30576;42.098;24.876;2023-03-15T11:07:54;98566.56;;;13.39;45.05
44839;BME280;30576;42.098;24.876;2023-03-15T11:10:21;98567.53;;;13.16;40.86
44839;BME280;30576;42.098;24.876;2023-03-15T11:12:47;98571.41;;;13.28;41.71
44839;BME280;30576;42.098;24.876;2023-03-15T11:15:13;98561.97;;;13.83;42.41
44839;BME280;30576;42.098;24.876;2023-03-15T11:17:43;98562.13;;;13.59;40.65
44839;BME280;30576;42.098;24.876;2023-03-15T11:22:43;98560.03;;;13.86;41.48
44839;BME280;30576;42.098;24.876;2023-03-15T11:25:15;98555.94;;;14.17;41.53
44839;BME280;30576;42.098;24.876;2023-03-15T11:27:41;98552.56;;;13.94;40.70
44839;BME280;30576;42.098;24.876;2023-03-15T11:30:15;98542.13;;;14.10;39.19
44839;BME280;30576;42.098;24.876;2023-03-15T11:32:41;98543.16;;;13.68;40.67
44839;BME280;30576;42.098;24.876;2023-03-15T11:42:36;98524.41;;;14.11;39.92
44839;BME280;30576;42.098;24.876;2023-03-15T11:47:51;98528.13;;;14.26;40.05
44839;BME280;30576;42.098;24.876;2023-03-15T11:50:18;98529.44;;;13.60;40.01
44839;BME280;30576;42.098;24.876;2023-03-15T11:52:50;98519.53;;;13.24;40.53
44839;BME280;30576;42.098;24.876;2023-03-15T11:55:18;98515.78;;;13.09;40.75
44839;BME280;30576;42.098;24.876;2023-03-15T11:57:46;98505.28;;;12.87;41.09
44839;BME280;30576;42.098;24.876;2023-03-15T12:10:46;98514.59;;;12.75;42.33
44839;BME280;30576;42.098;24.876;2023-03-15T12:13:27;98507.03;;;12.86;42.64
44839;BME280;30576;42.098;24.876;2023-03-15T12:15:53;98498.53;;;12.80;40.77
44839;BME280;30576;42.098;24.876;2023-03-15T12:18:20;98497.63;;;13.20;40.44
44839;BME280;30576;42.098;24.876;2023-03-15T12:20:49;98498.22;;;13.27;40.08
44839;BME280;30576;42.098;24.876;2023-03-15T12:28:24;98496.34;;;13.10;40.54
44839;BME280;30576;42.098;24.876;2023-03-15T12:30:51;98510.13;;;13.37;39.73
44839;BME280;30576;42.098;24.876;2023-03-15T12:33:19;98503.72;;;13.22;40.65
44839;BME280;30576;42.098;24.876;2023-03-15T12:35:45;98485.66;;;13.51;42.09
44839;BME280;30576;42.098;24.876;2023-03-15T12:38:17;98486.69;;;13.68;40.41
44839;BME280;30576;42.098;24.876;2023-03-15T12:40:51;98477.44;;;13.18;41.18
44839;BME280;30576;42.098;24.876;2023-03-15T12:46:01;98477.22;;;12.83;41.10
44839;BME280;30576;42.098;24.876;2023-03-15T12:48:27;98474.22;;;12.90;40.57
44839;BME280;30576;42.098;24.876;2023-03-15T12:50:59;98479.97;;;12.39;41.95
44839;BME280;30576;42.098;24.876;2023-03-15T12:55:54;98483.47;;;12.39;42.16
44839;BME280;30576;42.098;24.876;2023-03-15T12:58:22;98488.16;;;12.32;43.21
44839;BME280;30576;42.098;24.876;2023-03-15T13:00:51;98486.13;;;12.80;42.18
44839;BME280;30576;42.098;24.876;2023-03-15T13:03:24;98487.69;;;12.65;42.63
44839;BME280;30576;42.098;24.876;2023-03-15T13:14:07;98465.72;;;12.84;43.78
44839;BME280;30576;42.098;24.876;2023-03-15T13:16:39;98465.31;;;12.72;43.63
44839;BME280;30576;42.098;24.876;2023-03-15T13:24:17;98460.50;;;12.82;43.00
44839;BME280;30576;42.098;24.876;2023-03-15T13:29:18;98456.31;;;12.56;43.41
44839;BME280;30576;42.098;24.876;2023-03-15T13:31:46;98455.63;;;12.51;43.79
44839;BME280;30576;42.098;24.876;2023-03-15T13:34:23;98453.16;;;12.68;43.13
44839;BME280;30576;42.098;24.876;2023-03-15T13:36:55;98448.31;;;12.78;42.81
44839;BME280;30576;42.098;24.876;2023-03-15T13:39:25;98452.00;;;12.74;43.44
44839;BME280;30576;42.098;24.876;2023-03-15T13:42:01;98452.75;;;12.78;42.85
44839;BME280;30576;42.098;24.876;2023-03-15T13:44:27;98446.25;;;12.85;42.73
44839;BME280;30576;42.098;24.876;2023-03-15T13:46:53;98444.78;;;12.98;42.65
44839;BME280;30576;42.098;24.876;2023-03-15T13:49:19;98447.69;;;12.92;42.21
44839;BME280;30576;42.098;24.876;2023-03-15T13:51:44;98444.50;;;13.04;41.73
44839;BME280;30576;42.098;24.876;2023-03-15T13:54:17;98449.28;;;13.36;40.82
44839;BME280;30576;42.098;24.876;2023-03-15T13:59:22;98433.72;;;13.09;41.26
44839;BME280;30576;42.098;24.876;2023-03-15T14:01:50;98438.00;;;13.12;41.33
44839;BME280;30576;42.098;24.876;2023-03-15T14:04:18;98436.50;;;13.25;41.27
44839;BME280;30576;42.098;24.876;2023-03-15T14:06:44;98446.63;;;13.36;41.14
44839;BME280;30576;42.098;24.876;2023-03-15T14:09:23;98440.38;;;13.18;40.91
44839;BME280;30576;42.098;24.876;2023-03-15T14:12:03;98433.00;;;13.24;41.29